Terminal Aerodrome Forecast
Issued by NWS Springfield, MO

Home | Current Version | Previous Version | Text Only | Print | Product List | Glossary On
Versions: 1 2 3 4 5 6 7 8 9 10 11 12 13 14
000
FTUS43 KSGF 232320
TAFSGF
TAF
KSGF 232320Z 2400/2424 30005KT P6SM SCT090
     FM241000 31006KT P6SM OVC025
     FM241200 32006KT P6SM OVC015
     FM241500 31008KT P6SM VCSH OVC020
     FM242200 31010KT P6SM BKN040=

USA.gov is the U.S. government's official web portal to all federal, state and local government web resources and services.